createdAt,value
2017-05-14T15:17:13.997Z,23.45
2017-05-14T15:18:13.990Z,23.37
2017-05-14T15:19:14.284Z,23.39
2017-05-14T15:20:14.276Z,23.48
2017-05-14T15:21:13.962Z,23.48
2017-05-14T15:22:14.308Z,23.55
2017-05-14T15:23:14.252Z,23.55
2017-05-14T15:24:14.244Z,23.54
2017-05-14T15:25:14.244Z,23.54
2017-05-14T15:26:13.621Z,23.66
2017-05-14T15:57:59.074Z,21.62
2017-05-14T15:58:59.067Z,21.62
2017-05-14T15:59:58.757Z,21.51
2017-05-14T16:00:59.056Z,21.5
2017-05-14T16:01:59.053Z,21.43
2017-05-14T16:02:59.056Z,21.47
2017-05-14T16:03:58.743Z,21.37
2017-05-14T16:04:59.049Z,21.37
2017-05-14T16:05:59.047Z,21.22
2017-05-14T16:06:59.040Z,21.25
2017-05-14T16:07:59.033Z,21.14
2017-05-14T16:08:59.039Z,21.13
2017-05-14T16:09:58.728Z,21.13
2017-05-14T16:10:59.031Z,21.11
2017-05-14T16:11:59.027Z,21.08
2017-05-14T16:12:58.722Z,21.04
2017-05-14T16:13:59.022Z,20.95
2017-05-14T16:14:59.025Z,20.92
2017-05-14T16:15:59.021Z,20.82
2017-05-14T16:16:58.717Z,20.82
2017-05-14T16:17:58.710Z,20.71
2017-05-14T16:18:59.015Z,20.78
2017-05-14T16:19:59.011Z,20.56
2017-05-14T16:20:59.016Z,20.48
2017-05-14T16:21:58.707Z,20.44
2017-05-14T16:22:59.008Z,20.19
2017-05-14T16:23:59.017Z,20.24
2017-05-14T16:24:59.003Z,20.12
2017-05-14T16:25:59.007Z,20.12
2017-05-14T16:26:59.004Z,20.03
2017-05-14T16:27:59.004Z,19.93
2017-05-14T16:28:59.000Z,19.96
2017-05-14T16:29:58.995Z,20
2017-05-14T16:30:59.003Z,19.97
2017-05-14T16:31:58.999Z,19.97
2017-05-14T16:32:59.003Z,20.03
2017-05-14T16:33:58.685Z,19.97
2017-05-14T16:34:58.992Z,19.97
2017-05-14T16:35:58.988Z,19.93
2017-05-14T16:36:58.994Z,19.82
2017-05-14T16:37:58.987Z,19.9
2017-05-14T16:38:58.989Z,19.81
2017-05-14T16:39:58.986Z,19.82
2017-05-14T16:40:58.679Z,19.81
2017-05-14T16:41:59.024Z,19.77
2017-05-14T16:42:58.370Z,19.77
2017-05-14T16:43:58.680Z,19.96
2017-05-14T16:44:58.673Z,20.03
2017-05-14T16:45:58.983Z,20.18
2017-05-14T16:46:58.673Z,20.17
2017-05-14T16:47:58.667Z,20.32
2017-05-14T16:48:58.973Z,20.36
2017-05-14T16:49:58.673Z,20.42
2017-05-14T16:50:58.664Z,20.32
2017-05-14T16:51:58.970Z,20.34
2017-05-14T16:52:58.966Z,20.29
2017-05-14T16:53:58.969Z,20.21
2017-05-14T16:54:58.659Z,20.18
2017-05-14T16:55:58.964Z,20.21
2017-05-14T16:56:58.963Z,20.26
2017-05-14T16:57:58.960Z,20.19
2017-05-14T16:58:58.962Z,20.19
2017-05-14T16:59:58.653Z,20.18
2017-05-14T17:00:58.655Z,20.17
2017-05-14T17:01:58.955Z,20.14
2017-05-14T17:02:58.955Z,20.04
2017-05-14T17:03:58.959Z,20.08
2017-05-14T17:04:58.954Z,20.11
2017-05-14T17:05:58.953Z,20.03
2017-05-14T17:06:58.951Z,20.04
2017-05-14T17:07:58.951Z,20.02
2017-05-14T17:08:58.646Z,19.94
2017-05-14T17:09:58.643Z,19.9
2017-05-14T17:10:58.948Z,19.93
2017-05-14T17:11:58.944Z,19.89
2017-05-14T17:12:58.337Z,19.82
2017-05-14T17:13:58.941Z,19.84
2017-05-14T17:14:58.940Z,19.82
2017-05-14T17:15:58.945Z,19.85
2017-05-14T17:16:58.940Z,19.77
2017-05-14T17:17:58.937Z,19.81
2017-05-14T17:18:58.984Z,19.78
2017-05-14T17:19:58.632Z,19.92
2017-05-14T17:20:58.936Z,19.81
2017-05-14T17:21:58.934Z,19.84
2017-05-14T17:22:58.930Z,19.85
2017-05-14T17:23:58.930Z,19.71
2017-05-14T17:24:58.927Z,19.62
2017-05-14T17:25:58.931Z,19.53
2017-05-14T17:26:58.926Z,19.53
2017-05-14T17:27:58.926Z,19.48
2017-05-14T17:28:58.619Z,19.49
2017-05-14T17:29:58.619Z,19.39
2017-05-14T17:30:58.309Z,19.37
2017-05-14T17:31:58.920Z,19.38
2017-05-14T17:32:58.919Z,19.24
2017-05-14T17:33:58.620Z,19.37
2017-05-14T17:34:58.613Z,19.24
2017-05-14T17:35:58.914Z,19.24
2017-05-14T17:36:58.911Z,19.2
2017-05-14T17:37:58.607Z,19.16
2017-05-14T17:38:58.609Z,19.22
2017-05-14T17:39:58.298Z,19.12
2017-05-14T17:40:58.603Z,19.11
2017-05-14T17:41:58.906Z,19.05
2017-05-14T17:42:58.600Z,19.09
2017-05-14T17:43:58.599Z,19.04
2017-05-14T17:44:58.901Z,19
2017-05-14T17:45:58.899Z,19.09
2017-05-14T17:46:58.899Z,19.04
2017-05-14T17:47:58.897Z,19.04
2017-05-14T17:48:58.591Z,18.97
2017-05-14T17:49:58.286Z,18.94
2017-05-14T17:50:58.890Z,18.91
2017-05-14T17:51:58.582Z,18.83
2017-05-14T17:52:58.892Z,18.71
2017-05-14T17:53:58.886Z,18.74
2017-05-14T17:54:58.887Z,18.66
2017-05-14T17:55:58.887Z,18.68
2017-05-14T17:56:58.883Z,18.61
2017-05-14T17:57:58.578Z,18.55
2017-05-14T17:58:58.574Z,18.52
2017-05-14T17:59:58.874Z,18.46
2017-05-14T18:00:58.876Z,18.43
2017-05-14T18:01:58.873Z,18.37
2017-05-14T18:02:58.873Z,18.34
2017-05-14T18:03:58.869Z,18.24
2017-05-14T18:04:58.565Z,18.28
2017-05-14T18:05:58.864Z,18.19
2017-05-14T18:06:58.562Z,18.12
2017-05-14T18:07:58.562Z,17.98
2017-05-14T18:08:58.862Z,17.75
2017-05-14T18:09:58.857Z,17.5
2017-05-14T18:10:58.858Z,17.23
2017-05-14T18:11:58.855Z,16.89
2017-05-14T18:12:58.852Z,16.82
2017-05-14T18:13:58.853Z,16.69
2017-05-14T18:14:58.848Z,16.65
2017-05-14T18:15:58.540Z,16.59
2017-05-14T18:16:58.845Z,16.57
2017-05-14T18:17:58.845Z,16.47
2017-05-14T18:18:58.894Z,16.43
2017-05-14T18:19:58.230Z,16.32
2017-05-14T18:20:58.839Z,16.36
2017-05-14T18:21:58.836Z,16.22
2017-05-14T18:22:58.526Z,16.18
2017-05-14T18:23:58.836Z,16.16
2017-05-14T18:24:58.835Z,16.17
2017-05-14T18:25:58.829Z,16.09
2017-05-14T18:26:58.826Z,15.99
2017-05-14T18:27:58.516Z,15.98
2017-05-14T18:28:58.822Z,16.02
2017-05-14T18:29:58.516Z,15.99
2017-05-14T18:30:58.817Z,15.99
2017-05-14T18:31:58.818Z,15.91
2017-05-14T18:32:58.817Z,15.98
2017-05-14T18:33:58.815Z,15.85
2017-05-14T18:34:58.809Z,15.84
2017-05-14T18:35:58.812Z,15.81
2017-05-14T18:36:58.504Z,15.84
2017-05-14T18:37:58.493Z,15.84
2017-05-14T18:38:58.801Z,15.85
2017-05-14T18:39:58.495Z,15.78
2017-05-14T18:40:58.798Z,15.78
2017-05-14T18:41:58.793Z,15.75
2017-05-14T18:42:58.791Z,15.76
2017-05-14T18:43:58.795Z,15.72
2017-05-14T18:44:58.484Z,15.66
2017-05-14T18:45:58.788Z,15.66
2017-05-14T18:46:58.478Z,15.69
2017-05-14T18:47:58.782Z,15.75
2017-05-14T18:48:58.473Z,15.81
2017-05-14T18:49:58.775Z,15.75
2017-05-14T18:50:58.775Z,15.78
2017-05-14T18:51:58.817Z,15.78
2017-05-14T18:52:58.773Z,15.73
2017-05-14T18:53:58.765Z,15.75
2017-05-14T18:54:58.768Z,15.73
2017-05-14T18:55:58.769Z,15.76
2017-05-14T18:56:58.760Z,15.67
2017-05-14T18:57:58.756Z,15.6
2017-05-14T18:58:58.450Z,15.62
2017-05-14T18:59:58.754Z,15.75
2017-05-14T19:00:58.756Z,15.67
2017-05-14T19:01:58.444Z,15.69
2017-05-14T19:02:58.443Z,15.69
2017-05-14T19:03:58.440Z,15.67
2017-05-14T19:04:58.741Z,15.59
2017-05-14T19:05:58.747Z,15.63
2017-05-14T19:06:58.738Z,15.62
2017-05-14T19:07:58.436Z,15.6
2017-05-14T19:08:58.735Z,15.66
2017-05-14T19:09:58.732Z,15.62
2017-05-14T19:10:58.728Z,15.55
2017-05-14T19:11:58.727Z,15.52
2017-05-14T19:12:58.724Z,15.43
2017-05-14T19:13:58.719Z,15.45
2017-05-14T19:14:58.719Z,15.48
2017-05-14T19:15:58.718Z,15.5
2017-05-14T19:16:58.716Z,15.51
2017-05-14T19:17:58.409Z,15.55
2017-05-14T19:18:58.407Z,15.6
2017-05-14T19:19:58.711Z,15.62
2017-05-14T19:20:58.402Z,15.73
2017-05-14T19:21:58.704Z,15.62
2017-05-14T19:22:58.095Z,15.73
2017-05-14T19:23:58.698Z,15.6
2017-05-14T19:24:58.698Z,15.73
2017-05-14T19:25:58.386Z,15.65
2017-05-14T19:26:58.383Z,15.7
2017-05-14T19:27:58.384Z,15.72
2017-05-14T19:28:58.693Z,15.72
2017-05-14T19:29:58.686Z,15.73
2017-05-14T19:30:58.683Z,15.72
2017-05-14T19:31:58.682Z,15.6
2017-05-14T19:32:58.673Z,15.75
2017-05-14T19:33:58.394Z,15.7
2017-05-14T19:34:58.674Z,15.66
2017-05-14T19:35:58.366Z,15.55
2017-05-14T19:36:58.667Z,15.6
2017-05-14T19:37:58.688Z,15.65
2017-05-14T19:38:58.663Z,15.63
2017-05-14T19:39:58.659Z,15.57
2017-05-14T19:40:58.656Z,15.57
2017-05-14T19:41:58.656Z,15.52
2017-05-14T19:42:58.346Z,15.5
2017-05-14T19:43:58.649Z,15.44
2017-05-14T19:44:58.652Z,15.52
2017-05-14T19:45:58.642Z,15.43
2017-05-14T19:46:58.647Z,15.45
2017-05-14T19:47:58.646Z,15.5
2017-05-14T19:48:58.331Z,15.33
2017-05-14T19:49:58.639Z,15.47
2017-05-14T19:50:58.325Z,15.41
2017-05-14T19:51:58.321Z,15.35
2017-05-14T19:52:58.627Z,15.33
2017-05-14T19:53:58.623Z,15.33
2017-05-14T19:54:58.623Z,15.35
2017-05-14T19:55:58.624Z,15.26
2017-05-14T19:56:58.617Z,15.22
2017-05-14T19:57:58.614Z,15.14
2017-05-14T19:58:58.616Z,15.1
2017-05-14T19:59:58.606Z,15.12
2017-05-14T20:00:58.606Z,15.08
2017-05-14T20:01:58.654Z,15.1
2017-05-14T20:02:58.609Z,15.04
2017-05-14T20:03:58.297Z,15.05
2017-05-14T20:04:58.594Z,14.97
2017-05-14T20:05:58.285Z,15.04
2017-05-14T20:06:58.594Z,14.97
2017-05-14T20:07:58.281Z,14.87
2017-05-14T20:08:58.591Z,14.96
2017-05-14T20:09:57.969Z,14.96
2017-05-14T20:10:58.585Z,14.79
2017-05-14T20:11:58.578Z,14.78
2017-05-14T20:12:58.578Z,14.82
2017-05-14T20:13:58.573Z,14.71
2017-05-14T20:14:58.569Z,14.71
2017-05-14T20:15:58.568Z,14.71
2017-05-14T20:16:58.567Z,14.67
2017-05-14T20:17:58.563Z,14.71
2017-05-14T20:18:58.560Z,14.68
2017-05-14T20:19:58.557Z,14.73
2017-05-14T20:20:58.246Z,14.68
2017-05-14T20:21:58.243Z,14.71
2017-05-14T20:22:58.247Z,14.77
2017-05-14T20:23:58.547Z,14.66
2017-05-14T20:24:58.544Z,14.67
2017-05-14T20:25:58.541Z,14.71
2017-05-14T20:26:58.232Z,14.85
2017-05-14T20:27:58.230Z,14.79
2017-05-14T20:28:58.227Z,14.82
2017-05-14T20:29:58.270Z,14.86
2017-05-14T20:30:58.219Z,14.86
2017-05-14T20:31:58.524Z,14.85
2017-05-14T20:32:58.522Z,14.77
2017-05-14T20:33:58.517Z,14.81
2017-05-14T20:34:58.519Z,14.74
2017-05-14T20:35:58.513Z,14.85
2017-05-14T20:36:58.200Z,14.86
2017-05-14T20:37:58.203Z,14.81
2017-05-14T20:38:58.510Z,14.86
2017-05-14T20:39:58.195Z,14.79
2017-05-14T20:40:58.500Z,14.81
2017-05-14T20:41:58.500Z,14.79
2017-05-14T20:42:58.189Z,14.85
2017-05-14T20:43:58.500Z,14.77
2017-05-14T20:44:58.489Z,14.81
2017-05-14T20:45:58.485Z,14.82
2017-05-14T20:46:58.177Z,14.78
2017-05-14T20:47:58.483Z,14.82
2017-05-14T20:48:58.479Z,14.82
2017-05-14T20:49:58.479Z,14.81
2017-05-14T20:50:58.474Z,14.81
2017-05-14T20:51:58.469Z,14.73
2017-05-14T20:52:58.167Z,14.82
2017-05-14T20:53:58.464Z,14.85
2017-05-14T20:54:58.154Z,14.67
2017-05-14T20:55:58.461Z,14.74
2017-05-14T20:56:58.454Z,14.77
2017-05-14T20:57:58.511Z,14.74
2017-05-14T20:58:58.450Z,14.68
2017-05-14T20:59:58.445Z,14.7
2017-05-14T21:00:58.445Z,14.71
2017-05-14T21:01:58.440Z,14.73
2017-05-14T21:02:58.442Z,14.71
2017-05-14T21:03:58.128Z,14.67
2017-05-14T21:04:58.431Z,14.79
2017-05-14T21:05:58.431Z,14.68
2017-05-14T21:06:58.425Z,14.68
2017-05-14T21:07:58.440Z,14.7
2017-05-14T21:08:58.426Z,14.73
2017-05-14T21:09:58.418Z,14.73
2017-05-14T21:10:57.802Z,14.73
2017-05-14T21:11:58.415Z,14.73
2017-05-14T21:12:58.413Z,14.77
2017-05-14T21:13:58.410Z,14.71
2017-05-14T21:14:58.403Z,14.73
2017-05-14T21:15:58.402Z,14.67
2017-05-14T21:16:58.405Z,14.73
2017-05-14T21:17:58.087Z,14.68
2017-05-14T21:18:58.397Z,14.58
2017-05-14T21:19:58.396Z,14.62
2017-05-14T21:20:58.387Z,14.56
2017-05-14T21:21:58.082Z,14.51
2017-05-14T21:22:58.379Z,14.56
2017-05-14T21:23:58.380Z,14.55
2017-05-14T21:24:58.378Z,14.49
2017-05-14T21:25:58.110Z,14.59
2017-05-14T21:26:58.059Z,14.51
2017-05-14T21:27:58.070Z,14.51
2017-05-14T21:28:58.063Z,14.52
2017-05-14T21:29:57.748Z,14.52
2017-05-14T21:30:58.359Z,14.49
2017-05-14T21:31:58.358Z,14.51
2017-05-14T21:32:58.353Z,14.49
2017-05-14T21:33:58.351Z,14.51
2017-05-14T21:34:58.040Z,14.53
2017-05-14T21:35:58.340Z,14.51
2017-05-14T21:36:58.343Z,14.49
2017-05-14T21:37:58.032Z,14.56
2017-05-14T21:38:58.343Z,14.52
2017-05-14T21:39:58.336Z,14.56
2017-05-14T21:40:58.330Z,14.52
2017-05-14T21:41:58.328Z,14.48
2017-05-14T21:42:58.322Z,14.44
2017-05-14T21:43:58.323Z,14.48
2017-05-14T21:44:58.318Z,14.49
2017-05-14T21:45:58.315Z,14.44
2017-05-14T21:46:57.697Z,14.49
2017-05-14T21:47:58.309Z,14.45
2017-05-14T21:48:57.998Z,14.45
2017-05-14T21:49:58.319Z,14.44
2017-05-14T21:50:57.995Z,14.41
2017-05-14T21:51:58.295Z,14.4
2017-05-14T21:52:58.299Z,14.45
2017-05-14T21:53:58.294Z,14.44
2017-05-14T21:54:57.982Z,14.49
2017-05-14T21:55:58.289Z,14.49
2017-05-14T21:56:57.983Z,14.45
2017-05-14T21:57:58.283Z,14.44
2017-05-14T21:58:58.283Z,14.45
2017-05-14T21:59:57.967Z,14.45
2017-05-14T22:00:58.271Z,14.48
2017-05-14T22:01:58.270Z,14.44
2017-05-14T22:02:57.963Z,14.43
2017-05-14T22:03:58.259Z,14.4
2017-05-14T22:04:58.258Z,14.38
2017-05-14T22:05:58.261Z,14.38
2017-05-14T22:06:58.252Z,14.34
2017-05-14T22:07:58.251Z,14.34
2017-05-14T22:08:58.245Z,14.37
2017-05-14T22:09:58.246Z,14.28
2017-05-14T22:10:57.626Z,14.23
2017-05-14T22:11:58.239Z,14.37
2017-05-14T22:12:57.931Z,14.22
2017-05-14T22:13:58.234Z,14.33
2017-05-14T22:14:58.282Z,14.2
2017-05-14T22:15:57.921Z,14.31
2017-05-14T22:16:57.923Z,14.2
2017-05-14T22:17:58.223Z,14.23
2017-05-14T22:18:58.214Z,14.2
2017-05-14T22:19:57.911Z,14.2
2017-05-14T22:20:58.213Z,14.16
2017-05-14T22:21:57.904Z,14.2
2017-05-14T22:22:57.899Z,14.18
2017-05-14T22:23:58.246Z,14.19
2017-05-14T22:24:58.198Z,14.23
2017-05-14T22:25:58.206Z,14.2
2017-05-14T22:26:58.193Z,14.22
2017-05-14T22:27:58.191Z,14.26
2017-05-14T22:28:57.883Z,14.19
2017-05-14T22:29:58.187Z,14.23
2017-05-14T22:30:58.181Z,14.16
2017-05-14T22:31:58.175Z,14.2
2017-05-14T22:32:58.179Z,14.2
2017-05-14T22:33:58.172Z,14.2
2017-05-14T22:34:58.177Z,14.26
2017-05-14T22:35:58.169Z,14.2
2017-05-14T22:36:57.857Z,14.22
2017-05-14T22:37:57.858Z,14.18
2017-05-14T22:38:57.855Z,14.19
2017-05-14T22:39:58.152Z,14.12
2017-05-14T22:40:58.152Z,14.16
2017-05-14T22:41:58.148Z,14.12
2017-05-14T22:42:58.145Z,14.13
2017-05-14T22:43:58.147Z,14.16
2017-05-14T22:44:57.832Z,14.12
2017-05-14T22:45:58.141Z,14.12
2017-05-14T22:46:58.130Z,14.08
2017-05-14T22:47:58.128Z,14.15
2017-05-14T22:48:58.126Z,14.05
2017-05-14T22:49:58.122Z,14.01
2017-05-14T22:50:58.119Z,14.11
2017-05-14T22:51:58.118Z,14.07
2017-05-14T22:52:58.119Z,14.07
2017-05-14T22:53:58.109Z,14.12
2017-05-14T22:54:57.801Z,14.12
2017-05-14T22:55:58.105Z,14.04
2017-05-14T22:56:57.795Z,14.08
2017-05-14T22:57:58.097Z,14.12
2017-05-14T22:58:58.094Z,14.05
2017-05-14T22:59:58.091Z,14.05
2017-05-14T23:00:58.089Z,14.03
2017-05-14T23:01:58.088Z,14
2017-05-14T23:02:58.079Z,14.03
2017-05-14T23:03:58.080Z,13.95
2017-05-14T23:04:58.078Z,13.95
2017-05-14T23:05:58.073Z,13.93
2017-05-14T23:06:57.770Z,13.87
2017-05-14T23:07:58.070Z,13.86
2017-05-14T23:08:58.064Z,13.94
2017-05-14T23:09:57.756Z,13.93
2017-05-14T23:10:57.751Z,13.79
2017-05-14T23:11:57.443Z,13.86
2017-05-14T23:12:57.748Z,13.75
2017-05-14T23:13:58.047Z,13.75
2017-05-14T23:14:58.051Z,13.73
2017-05-14T23:15:58.045Z,13.83
2017-05-14T23:16:58.041Z,13.79
2017-05-14T23:17:58.037Z,13.76
2017-05-14T23:18:58.033Z,13.75
2017-05-14T23:19:57.725Z,13.78
2017-05-14T23:20:58.026Z,13.75
2017-05-14T23:21:58.024Z,13.7
2017-05-14T23:22:58.024Z,13.76
2017-05-14T23:23:58.018Z,13.68
2017-05-14T23:24:57.705Z,13.71
2017-05-14T23:25:58.008Z,13.67
2017-05-14T23:26:57.706Z,13.7
2017-05-14T23:27:58.003Z,13.73
2017-05-14T23:28:58.021Z,13.57
2017-05-14T23:29:57.699Z,13.65
2017-05-14T23:30:57.993Z,13.65
2017-05-14T23:31:57.992Z,13.65
2017-05-14T23:32:57.990Z,13.58
2017-05-14T23:33:57.999Z,13.64
2017-05-14T23:34:57.979Z,13.64
2017-05-14T23:35:57.981Z,13.68
2017-05-14T23:36:57.980Z,13.64
2017-05-14T23:37:57.973Z,13.58
2017-05-14T23:38:57.975Z,13.75
2017-05-14T23:39:57.968Z,13.68
2017-05-14T23:40:57.659Z,13.67
2017-05-14T23:41:57.653Z,13.71
2017-05-14T23:42:57.963Z,13.73
2017-05-14T23:43:57.958Z,13.7
2017-05-14T23:44:57.949Z,13.75
2017-05-14T23:45:57.948Z,13.71
2017-05-14T23:46:57.948Z,13.71
2017-05-14T23:47:57.941Z,13.78
2017-05-14T23:48:57.935Z,13.78
2017-05-14T23:49:57.936Z,13.76
2017-05-14T23:50:57.624Z,13.82
2017-05-14T23:51:57.626Z,13.82
2017-05-14T23:52:57.923Z,13.76
2017-05-14T23:53:57.615Z,13.75
2017-05-14T23:54:57.921Z,13.79
2017-05-14T23:55:57.609Z,13.8
2017-05-14T23:56:57.909Z,13.8
2017-05-14T23:57:57.600Z,13.78
2017-05-14T23:58:57.906Z,13.73
2017-05-14T23:59:57.595Z,13.8
